Time;durP1;ratioP1;P1;durP2;ratioP2;P2;SDS_P1;SDS_P2;PMS_P1;PMS_P2;Temp;Humidity;BMP_temperature;BMP_pressure;BME280_temperature;BME280_humidity;BME280_pressure;Samples;Min_cycle;Max_cycle;Signal;HPM_P1;HPM_P2
2023/01/16 04:49:30;;;;;;;1.45;1.35;;;-0.90;99.90;;;;;;5505675;23;20984;-74
2023/01/16 04:51:57;;;;;;;1.75;1.50;;;-0.90;99.90;;;;;;4994188;28;20229;-73
2023/01/16 04:54:24;;;;;;;1.65;1.65;;;-0.90;99.90;;;;;;4994593;28;20209;-73
2023/01/16 04:56:50;;;;;;;2.05;1.63;;;-0.90;99.90;;;;;;4994679;28;20210;-73
2023/01/16 04:59:17;;;;;;;2.10;1.50;;;-0.90;99.90;;;;;;4994354;28;20229;-73
2023/01/16 05:01:44;;;;;;;1.90;1.70;;;-1.00;99.90;;;;;;4994494;28;20195;-73
2023/01/16 05:04:14;;;;;;;2.05;1.95;;;-1.00;99.90;;;;;;4994817;28;20206;-72
2023/01/16 05:06:42;;;;;;;3.03;1.92;;;-1.00;99.90;;;;;;4994306;28;20206;-72
2023/01/16 05:09:09;;;;;;;2.92;2.08;;;-1.00;99.90;;;;;;4993931;28;20705;-73
2023/01/16 05:11:36;;;;;;;5.60;2.17;;;-1.10;99.90;;;;;;4994083;28;20226;-74
2023/01/16 05:14:05;;;;;;;2.28;1.80;;;-1.00;99.90;;;;;;4994163;28;20211;-74
2023/01/16 05:16:31;;;;;;;2.55;1.90;;;-1.10;99.90;;;;;;4994146;28;20230;-74
2023/01/16 05:18:59;;;;;;;2.50;2.40;;;-1.10;99.90;;;;;;4994028;28;20219;-74
2023/01/16 05:21:25;;;;;;;2.40;2.00;;;-1.20;99.90;;;;;;4993801;28;20670;-74
2023/01/16 05:23:53;;;;;;;2.38;2.00;;;-1.10;99.90;;;;;;4994945;28;20229;-74
2023/01/16 05:26:20;;;;;;;1.98;1.80;;;-1.10;99.90;;;;;;4998182;28;20198;-74
2023/01/16 05:28:47;;;;;;;2.38;2.00;;;-1.20;99.90;;;;;;4998212;28;20233;-74
2023/01/16 05:31:13;;;;;;;2.08;1.98;;;-1.20;99.90;;;;;;4997982;28;20218;-74
2023/01/16 05:33:40;;;;;;;2.03;2.03;;;-1.20;99.90;;;;;;4998066;28;20209;-74
2023/01/16 05:36:07;;;;;;;1.73;1.63;;;-1.20;99.90;;;;;;4998187;28;20209;-75
2023/01/16 05:38:34;;;;;;;1.50;1.50;;;-1.20;99.90;;;;;;4997886;28;20218;-74
2023/01/16 05:41:02;;;;;;;4.03;1.92;;;-1.20;99.90;;;;;;4997957;28;20206;-74
2023/01/16 05:43:29;;;;;;;1.52;1.52;;;-1.20;99.90;;;;;;4997871;28;20206;-74
2023/01/16 05:45:56;;;;;;;3.88;1.95;;;-1.20;99.90;;;;;;4997753;28;20202;-71
2023/01/16 05:48:23;;;;;;;2.22;2.05;;;-1.20;99.90;;;;;;4997736;28;20205;-71
2023/01/16 05:50:50;;;;;;;1.88;1.80;;;-1.20;99.90;;;;;;4997685;28;20202;-72
2023/01/16 05:53:17;;;;;;;2.45;1.70;;;-1.20;99.90;;;;;;4997715;28;20595;-73
2023/01/16 05:55:45;;;;;;;2.47;1.20;;;-1.20;99.90;;;;;;4998541;28;20202;-78
2023/01/16 05:58:15;;;;;;;1.63;1.52;;;-1.20;99.90;;;;;;5000280;28;20206;-78
2023/01/16 06:00:42;;;;;;;1.65;1.55;;;-1.20;99.90;;;;;;5003338;28;20209;-79
2023/01/16 06:03:09;;;;;;;4.78;1.98;;;-1.30;99.90;;;;;;5000696;28;20199;-78
2023/01/16 06:05:36;;;;;;;1.70;1.60;;;-1.30;99.90;;;;;;5000448;28;20209;-79
2023/01/16 06:08:04;;;;;;;3.22;1.92;;;-1.30;99.90;;;;;;5001425;28;20214;-78
2023/01/16 06:10:31;;;;;;;1.55;1.50;;;-1.40;99.90;;;;;;5002972;28;20284;-78
2023/01/16 06:12:58;;;;;;;1.88;1.60;;;-1.40;99.90;;;;;;5000795;28;20229;-78
2023/01/16 06:15:26;;;;;;;2.70;1.52;;;-1.40;99.90;;;;;;5001689;28;20603;-79
2023/01/16 06:17:53;;;;;;;2.60;1.75;;;-1.50;99.90;;;;;;5004252;28;20210;-80
2023/01/16 06:20:20;;;;;;;2.53;1.75;;;-1.50;99.90;;;;;;5000705;28;20285;-78
2023/01/16 06:22:47;;;;;;;8.20;5.28;;;-1.50;99.90;;;;;;5000709;28;20681;-80
2023/01/16 11:28:19;;;;;;;1.40;1.30;;;1.20;99.90;;;;;;5082867;23;20231;-75
2023/01/16 11:30:47;;;;;;;1.35;1.25;;;1.20;99.90;;;;;;4976826;28;20224;-73
2023/01/16 11:33:17;;;;;;;3.80;1.40;;;1.20;99.90;;;;;;4976819;28;20234;-73
2023/01/16 11:35:52;;;;;;;1.20;1.08;;;1.30;99.90;;;;;;4977174;28;20238;-73
2023/01/16 11:38:19;;;;;;;1.13;1.13;;;1.40;99.90;;;;;;4976574;28;20219;-73
2023/01/16 11:40:48;;;;;;;1.33;1.30;;;1.40;99.90;;;;;;4977477;28;20210;-73
2023/01/16 11:46:11;;;;;;;2.10;2.05;;;1.50;99.90;;;;;;4976475;28;20650;-73
2023/01/16 11:48:40;;;;;;;1.60;1.48;;;1.50;99.90;;;;;;4976550;28;20233;-75
2023/01/16 11:51:13;;;;;;;1.52;1.42;;;1.50;99.90;;;;;;4976069;28;20730;-75
2023/01/16 11:53:40;;;;;;;1.35;1.25;;;1.60;99.90;;;;;;4976398;28;20211;-75
2023/01/16 11:56:37;;;;;;;1.30;1.30;;;1.60;99.90;;;;;;4976355;28;20214;-75
2023/01/16 11:59:26;;;;;;;1.17;1.17;;;1.50;99.90;;;;;;4943699;28;20207;-75
2023/01/16 12:05:53;;;;;;;1.23;1.20;;;1.50;99.90;;;;;;4975688;28;20202;-75
2023/01/16 12:07:46;;;;;;;1.50;1.40;;;1.40;99.90;;;;;;4975585;28;20223;-76
2023/01/16 12:10:34;;;;;;;1.60;1.50;;;1.40;99.90;;;;;;4975878;28;20191;-75
2023/01/16 12:16:02;;;;;;;1.90;1.80;;;1.30;99.90;;;;;;4976109;28;20186;-76
2023/01/16 12:18:35;;;;;;;2.45;2.30;;;1.30;99.90;;;;;;4975829;28;20188;-77
2023/01/16 12:21:03;;;;;;;1.10;1.10;;;1.30;99.90;;;;;;4975825;28;20198;-76
2023/01/16 12:23:48;;;;;;;1.58;1.30;;;1.30;99.90;;;;;;4975573;28;20207;-75
2023/01/16 12:26:22;;;;;;;1.45;1.45;;;1.30;99.90;;;;;;4975527;28;20191;-75
2023/01/16 12:29:06;;;;;;;1.60;1.50;;;1.30;99.90;;;;;;4975462;28;20603;-76
2023/01/16 12:31:53;;;;;;;1.10;1.10;;;1.20;99.90;;;;;;4975421;28;20243;-76
2023/01/16 12:34:39;;;;;;;1.17;1.17;;;1.40;99.90;;;;;;4974599;28;20655;-76
2023/01/16 12:37:18;;;;;;;1.10;1.10;;;1.50;99.90;;;;;;4975344;28;20230;-76
2023/01/16 12:39:52;;;;;;;1.40;1.33;;;1.70;99.90;;;;;;4975539;28;20196;-77
2023/01/16 12:45:26;;;;;;;1.00;1.00;;;2.10;99.90;;;;;;4975250;28;20543;-75
2023/01/16 12:48:09;;;;;;;1.23;1.23;;;2.30;99.90;;;;;;4975079;28;20227;-75
2023/01/16 12:50:51;;;;;;;1.10;1.10;;;2.30;99.90;;;;;;4975270;28;20187;-75
2023/01/16 12:53:45;;;;;;;0.82;0.82;;;2.40;99.90;;;;;;4974799;28;20679;-76
2023/01/16 12:56:29;;;;;;;2.35;0.90;;;2.40;99.90;;;;;;4975011;28;20184;-76
2023/01/16 12:59:01;;;;;;;1.48;1.35;;;2.30;99.90;;;;;;4975072;28;20191;-75
2023/01/16 13:01:31;;;;;;;1.23;1.15;;;2.20;99.90;;;;;;4975034;28;20195;-76
2023/01/16 13:04:08;;;;;;;1.35;1.10;;;2.10;99.90;;;;;;4975149;28;20179;-75
2023/01/16 13:06:41;;;;;;;1.00;1.00;;;2.00;99.90;;;;;;4975339;28;20267;-76
2023/01/16 13:09:19;;;;;;;1.30;1.30;;;1.90;99.90;;;;;;4974690;28;20192;-76
2023/01/16 13:14:44;;;;;;;1.10;1.10;;;1.90;99.90;;;;;;4974899;28;20197;-75
2023/01/16 13:17:16;;;;;;;1.33;1.33;;;1.90;99.90;;;;;;4974859;28;20227;-78
2023/01/16 13:19:46;;;;;;;1.33;1.27;;;1.80;99.90;;;;;;4974976;28;20195;-75
2023/01/16 13:22:24;;;;;;;1.17;1.17;;;1.80;99.90;;;;;;4975204;28;20199;-76
2023/01/16 13:24:55;;;;;;;1.15;1.15;;;1.90;99.90;;;;;;4974981;28;20282;-76
2023/01/16 13:27:32;;;;;;;3.15;1.40;;;1.90;99.90;;;;;;4974803;28;20231;-76
2023/01/16 13:30:05;;;;;;;1.77;1.45;;;1.90;99.90;;;;;;4974562;28;20608;-76
2023/01/16 13:32:36;;;;;;;1.27;1.27;;;1.90;99.90;;;;;;4974465;28;20686;-76
2023/01/16 13:35:09;;;;;;;1.50;1.40;;;2.00;99.90;;;;;;4974723;28;20184;-75
2023/01/16 13:37:53;;;;;;;9.07;1.58;;;2.10;99.90;;;;;;4974603;28;20227;-75
2023/01/16 13:40:35;;;;;;;1.40;1.40;;;2.20;99.90;;;;;;4974628;28;20184;-74
2023/01/16 13:45:54;;;;;;;1.50;1.38;;;2.40;99.90;;;;;;4977249;28;20183;-74
2023/01/16 13:48:23;;;;;;;1.02;1.02;;;2.30;99.90;;;;;;4978739;28;20250;-74
2023/01/16 13:50:59;;;;;;;1.25;1.15;;;2.30;99.90;;;;;;4978332;28;20576;-74
2023/01/16 13:53:29;;;;;;;1.08;1.08;;;2.30;99.90;;;;;;4978099;28;20746;-74
2023/01/16 13:56:06;;;;;;;0.98;0.98;;;2.30;99.90;;;;;;4978352;28;20331;-74
2023/01/16 13:58:33;;;;;;;1.10;1.10;;;2.30;99.90;;;;;;4978226;28;20254;-74
2023/01/16 14:01:02;;;;;;;1.20;1.20;;;2.20;99.90;;;;;;4978139;28;20254;-74
2023/01/16 14:03:31;;;;;;;1.00;1.00;;;2.10;99.90;;;;;;4978103;28;20203;-74
2023/01/16 14:06:18;;;;;;;1.33;1.33;;;2.10;99.90;;;;;;4978094;28;20207;-74
2023/01/16 14:09:04;;;;;;;1.10;1.10;;;2.10;99.90;;;;;;4978071;28;20191;-74
2023/01/16 14:11:39;;;;;;;1.67;1.67;;;2.00;99.90;;;;;;4978152;28;20183;-75
2023/01/16 14:17:18;;;;;;;1.27;1.27;;;2.00;99.90;;;;;;4977818;28;20222;-75
2023/01/16 14:19:55;;;;;;;1.30;1.20;;;2.00;99.90;;;;;;4977872;28;20203;-74
2023/01/16 14:25:20;;;;;;;1.35;1.35;;;2.10;99.90;;;;;;4978044;28;20702;-75
2023/01/16 14:27:51;;;;;;;1.27;1.27;;;2.10;99.90;;;;;;4977747;28;20227;-75
2023/01/16 14:30:21;;;;;;;1.20;1.20;;;2.00;99.90;;;;;;4977511;28;20207;-75
2023/01/16 14:32:53;;;;;;;1.42;1.42;;;2.00;99.90;;;;;;4977502;28;20255;-75
2023/01/16 14:35:23;;;;;;;1.65;1.55;;;1.90;99.90;;;;;;4977620;28;20191;-75
2023/01/16 14:37:58;;;;;;;1.52;1.35;;;1.80;99.90;;;;;;4977521;28;20223;-75
2023/01/16 14:55:12;;;;;;;1.90;1.80;;;1.90;99.90;;;;;;4977454;28;20289;-75
2023/01/16 14:55:45;;;;;;;1.80;1.52;;;1.80;99.90;;;;;;4976946;28;20187;-75
2023/01/16 14:58:15;;;;;;;0.80;0.80;;;1.90;99.90;;;;;;4976069;28;20226;-75
2023/01/16 15:00:43;;;;;;;1.00;1.00;;;2.00;99.90;;;;;;4977769;28;20199;-75
2023/01/16 15:03:15;;;;;;;1.10;1.10;;;2.00;99.90;;;;;;4976882;28;20191;-75
2023/01/16 15:05:53;;;;;;;1.27;1.13;;;2.00;99.90;;;;;;4977074;28;20279;-75
2023/01/16 15:08:24;;;;;;;0.82;0.82;;;2.10;99.90;;;;;;4977063;28;20254;-76
2023/01/16 15:10:54;;;;;;;0.98;0.98;;;2.10;99.90;;;;;;4977149;28;20262;-76
2023/01/16 15:13:23;;;;;;;1.13;1.10;;;2.20;99.90;;;;;;4977416;28;20223;-75
2023/01/16 15:15:53;;;;;;;0.98;0.98;;;2.20;99.90;;;;;;4977109;28;20208;-75
2023/01/16 15:23:58;;;;;;;1.85;1.40;;;2.30;99.90;;;;;;4976661;28;20642;-75
2023/01/16 15:26:55;;;;;;;0.95;0.95;;;2.20;99.90;;;;;;4976503;28;20226;-75
2023/01/16 15:29:40;;;;;;;2.00;1.52;;;2.10;99.90;;;;;;4963753;28;20258;-75
2023/01/16 15:32:17;;;;;;;0.90;0.90;;;2.10;99.90;;;;;;4976564;28;20187;-76
2023/01/16 15:34:45;;;;;;;0.70;0.70;;;2.00;99.90;;;;;;4976485;28;20215;-75
2023/01/16 15:37:21;;;;;;;0.85;0.85;;;2.10;99.90;;;;;;4976354;28;20254;-75
2023/01/16 15:39:50;;;;;;;1.25;1.15;;;2.00;99.90;;;;;;4976212;28;20250;-75
2023/01/16 15:48:22;;;;;;;0.80;0.80;;;1.90;99.90;;;;;;4976476;28;20230;-75
2023/01/16 15:50:55;;;;;;;1.38;1.10;;;1.90;99.90;;;;;;4977202;28;20191;-76
2023/01/16 15:53:24;;;;;;;1.00;1.00;;;1.80;99.90;;;;;;4980439;28;20207;-76
2023/01/16 15:55:53;;;;;;;1.05;1.05;;;1.80;99.90;;;;;;4980009;28;20211;-76
2023/01/16 15:58:23;;;;;;;1.15;1.15;;;1.80;99.90;;;;;;4976232;28;20227;-77
2023/01/16 16:00:55;;;;;;;1.20;1.20;;;1.70;99.90;;;;;;4976598;28;20203;-76
2023/01/16 16:03:25;;;;;;;1.02;1.02;;;1.70;99.90;;;;;;4976500;28;20235;-76
2023/01/16 16:05:56;;;;;;;1.20;1.20;;;1.70;99.90;;;;;;4976216;28;20193;-76
2023/01/16 16:08:25;;;;;;;3.17;0.98;;;1.70;99.90;;;;;;4975714;28;20307;-76
2023/01/16 16:13:39;;;;;;;1.33;1.33;;;1.60;99.90;;;;;;4975891;28;20573;-76
2023/01/16 16:19:01;;;;;;;1.15;1.15;;;1.60;99.90;;;;;;4975939;28;20545;-76
2023/01/16 16:21:31;;;;;;;1.48;1.20;;;1.60;99.90;;;;;;4975623;28;20200;-75
2023/01/16 16:24:01;;;;;;;0.98;0.98;;;1.60;99.90;;;;;;4975642;28;20204;-75
2023/01/16 16:26:29;;;;;;;1.30;1.30;;;1.50;99.90;;;;;;4975535;28;20706;-76
2023/01/16 16:28:59;;;;;;;0.90;0.90;;;1.40;99.90;;;;;;4975150;28;20578;-75
2023/01/16 16:31:30;;;;;;;1.00;1.00;;;1.60;99.90;;;;;;4975103;28;20594;-75
2023/01/16 16:34:00;;;;;;;1.58;1.17;;;1.60;99.90;;;;;;4975284;28;20746;-75
2023/01/16 16:36:27;;;;;;;0.75;0.75;;;1.60;99.90;;;;;;4975651;28;20225;-76
2023/01/16 16:38:55;;;;;;;0.93;0.93;;;1.60;99.90;;;;;;4975727;28;20258;-77
2023/01/16 16:44:42;;;;;;;1.13;1.00;;;1.80;99.90;;;;;;4982070;28;20216;-77
2023/01/16 16:47:26;;;;;;;0.85;0.85;;;1.70;99.90;;;;;;4996557;28;20226;-76
2023/01/16 16:49:53;;;;;;;0.70;0.70;;;1.60;99.90;;;;;;4995346;28;20188;-76
2023/01/16 16:52:39;;;;;;;0.90;0.90;;;1.60;99.90;;;;;;4995883;28;20198;-76
2023/01/16 16:55:28;;;;;;;0.77;0.77;;;1.60;99.90;;;;;;4990470;28;20210;-75
2023/01/16 16:57:57;;;;;;;1.58;1.48;;;1.50;99.90;;;;;;4976140;28;20227;-76
2023/01/16 17:00:27;;;;;;;0.88;0.82;;;1.60;99.90;;;;;;4975207;28;20218;-76
2023/01/16 17:03:02;;;;;;;2.75;2.55;;;1.50;99.90;;;;;;4974995;28;20210;-77
2023/01/16 17:05:30;;;;;;;2.78;2.58;;;1.50;99.90;;;;;;4975035;28;20195;-76
2023/01/16 17:07:57;;;;;;;1.77;1.67;;;1.30;99.90;;;;;;4974863;28;20682;-76
2023/01/16 17:10:24;;;;;;;2.13;2.03;;;1.30;99.90;;;;;;4974898;28;20679;-76
2023/01/16 17:12:50;;;;;;;1.20;1.20;;;1.30;99.90;;;;;;4974826;28;20207;-76
2023/01/16 17:15:17;;;;;;;1.60;1.50;;;1.20;99.90;;;;;;4975010;28;20227;-76
2023/01/16 17:17:46;;;;;;;1.10;1.10;;;1.20;99.90;;;;;;4974572;28;20223;-76
2023/01/16 17:20:18;;;;;;;0.90;0.90;;;1.20;99.90;;;;;;4974679;28;20207;-77
2023/01/16 17:22:45;;;;;;;0.73;0.73;;;1.30;99.90;;;;;;4975317;28;20207;-76
2023/01/16 17:25:19;;;;;;;0.80;0.80;;;1.20;99.90;;;;;;4975333;28;20238;-76
2023/01/16 17:27:46;;;;;;;0.80;0.80;;;1.20;99.90;;;;;;4977322;28;20235;-78
2023/01/16 17:30:14;;;;;;;0.70;0.70;;;1.30;99.90;;;;;;4975768;28;20618;-78
2023/01/16 17:32:41;;;;;;;0.63;0.60;;;1.20;99.90;;;;;;4977488;28;20184;-78
2023/01/16 17:35:14;;;;;;;0.60;0.60;;;1.20;99.90;;;;;;4975624;28;20230;-77
2023/01/16 17:37:41;;;;;;;0.98;0.98;;;1.20;99.90;;;;;;4974976;28;20227;-77
2023/01/16 17:40:09;;;;;;;0.70;0.70;;;1.20;99.90;;;;;;4974910;28;20203;-77
2023/01/16 17:48:13;;;;;;;1.90;1.20;;;1.30;99.90;;;;;;4975389;28;20230;-77
2023/01/16 17:50:42;;;;;;;0.77;0.77;;;1.40;99.90;;;;;;4975528;28;20202;-77
2023/01/16 17:53:11;;;;;;;0.90;0.90;;;1.30;99.90;;;;;;4975078;28;20266;-78
2023/01/16 17:55:55;;;;;;;0.70;0.70;;;1.30;99.90;;;;;;4975190;28;20239;-78
2023/01/16 17:58:28;;;;;;;2.55;0.90;;;1.40;99.90;;;;;;4974670;28;20227;-75
2023/01/16 18:00:58;;;;;;;0.60;0.60;;;1.40;99.90;;;;;;4974661;28;20202;-76
2023/01/16 18:03:24;;;;;;;0.70;0.70;;;1.40;99.90;;;;;;4974667;28;20278;-75
2023/01/16 18:05:53;;;;;;;0.63;0.63;;;1.30;99.90;;;;;;4974668;28;20214;-77
2023/01/16 18:08:20;;;;;;;0.90;0.70;;;1.30;99.90;;;;;;4974346;28;20223;-76
2023/01/16 18:10:46;;;;;;;2.33;0.60;;;1.20;99.90;;;;;;4974717;28;20274;-76
2023/01/16 18:18:41;;;;;;;1.00;0.90;;;1.30;99.90;;;;;;4974687;28;20274;-76
2023/01/16 18:23:58;;;;;;;2.63;1.00;;;1.30;99.90;;;;;;4974662;28;20291;-77
2023/01/16 18:26:25;;;;;;;1.13;0.70;;;1.20;99.90;;;;;;4974718;28;20223;-77
2023/01/16 18:28:52;;;;;;;2.53;1.10;;;1.20;99.90;;;;;;4974503;28;20233;-78
2023/01/16 18:31:19;;;;;;;0.77;0.77;;;1.20;99.90;;;;;;4974618;28;20266;-77
2023/01/16 18:33:47;;;;;;;1.48;0.80;;;1.20;99.90;;;;;;4977899;28;20560;-76
2023/01/16 18:36:15;;;;;;;1.00;1.00;;;1.10;99.90;;;;;;4977857;28;20313;-76
2023/01/16 19:03:27;;;;;;;2.28;1.98;;;1.00;99.90;;;;;;4977617;28;20638;-76
2023/01/16 19:05:54;;;;;;;1.58;1.40;;;0.90;99.90;;;;;;4977464;28;20207;-76
2023/01/16 19:08:23;;;;;;;2.67;2.47;;;0.90;99.90;;;;;;4977060;28;20227;-75
2023/01/16 19:10:51;;;;;;;3.17;2.17;;;0.90;99.90;;;;;;4977361;28;20258;-76
2023/01/16 19:13:19;;;;;;;1.98;1.90;;;0.80;99.90;;;;;;4976853;28;20200;-76
2023/01/16 19:18:26;;;;;;;0.90;0.90;;;0.90;99.90;;;;;;4975958;28;20198;-76
2023/01/16 19:20:53;;;;;;;2.40;1.25;;;0.90;99.90;;;;;;4977285;28;20230;-76
2023/01/16 19:23:21;;;;;;;0.90;0.90;;;0.90;99.90;;;;;;4977458;28;20212;-76
2023/01/16 19:25:48;;;;;;;2.58;1.23;;;1.00;99.90;;;;;;4977372;28;20207;-76
2023/01/16 19:28:15;;;;;;;2.03;1.00;;;1.00;99.90;;;;;;4976846;28;20231;-76
2023/01/16 19:30:42;;;;;;;1.83;0.90;;;1.00;99.90;;;;;;4976567;28;20218;-77
2023/01/16 19:33:08;;;;;;;6.72;1.55;;;1.10;99.90;;;;;;4976440;28;20570;-77
2023/01/16 19:35:35;;;;;;;1.13;1.13;;;1.10;99.90;;;;;;4977228;28;20231;-76
2023/01/16 19:38:02;;;;;;;1.23;1.15;;;1.10;99.90;;;;;;4976240;28;20718;-76
2023/01/16 19:40:30;;;;;;;1.00;1.00;;;1.10;99.90;;;;;;4976366;28;20574;-76
2023/01/16 19:48:25;;;;;;;0.95;0.90;;;1.10;99.90;;;;;;4976412;28;20226;-76
2023/01/16 19:50:52;;;;;;;1.45;1.20;;;1.10;99.90;;;;;;4976450;28;20665;-75
2023/01/16 19:53:19;;;;;;;2.83;1.63;;;1.10;99.90;;;;;;4976304;28;20199;-76
2023/01/16 19:55:48;;;;;;;1.45;1.13;;;1.00;99.90;;;;;;4976128;28;20625;-75
2023/01/16 19:58:14;;;;;;;1.05;1.05;;;0.80;99.90;;;;;;4976060;28;20254;-75
2023/01/16 20:00:44;;;;;;;3.90;1.40;;;0.80;99.90;;;;;;4976176;28;20203;-75
2023/01/16 20:03:10;;;;;;;2.05;1.27;;;0.70;99.90;;;;;;4975982;28;20203;-75
2023/01/16 20:05:37;;;;;;;1.65;1.10;;;0.60;99.90;;;;;;4976100;28;20206;-76
2023/01/16 20:08:04;;;;;;;0.98;0.98;;;0.50;99.90;;;;;;4975956;28;20311;-76
2023/01/16 20:10:31;;;;;;;1.15;1.10;;;0.40;99.90;;;;;;4975966;28;20589;-74
2023/01/16 20:12:59;;;;;;;2.42;1.10;;;0.40;99.90;;;;;;4976266;28;20203;-74
2023/01/16 20:15:26;;;;;;;0.98;0.98;;;0.40;99.90;;;;;;4976144;28;20215;-75
2023/01/16 20:17:53;;;;;;;1.02;1.02;;;0.40;99.90;;;;;;4975905;28;20224;-75
2023/01/16 20:20:20;;;;;;;1.98;1.10;;;0.30;99.90;;;;;;4976381;28;20210;-76
2023/01/16 20:22:47;;;;;;;1.08;1.00;;;0.20;99.90;;;;;;4976848;28;20211;-77
2023/01/16 20:25:14;;;;;;;1.45;1.15;;;0.30;99.90;;;;;;4976502;28;20659;-78
2023/01/16 20:27:43;;;;;;;1.27;1.00;;;0.30;99.90;;;;;;4978138;28;20297;-77
2023/01/16 20:30:14;;;;;;;1.05;1.02;;;0.20;99.90;;;;;;4977603;28;20233;-78
2023/01/16 20:32:41;;;;;;;2.05;1.27;;;0.20;99.90;;;;;;4977027;28;20242;-77
2023/01/16 20:35:09;;;;;;;2.78;2.00;;;0.20;99.90;;;;;;4977278;28;20222;-77
2023/01/16 20:37:36;;;;;;;1.00;1.00;;;0.10;99.90;;;;;;4976268;28;20235;-78
2023/01/16 20:40:03;;;;;;;1.50;1.33;;;0.20;99.90;;;;;;4976247;28;20203;-77
2023/01/16 20:48:01;;;;;;;1.92;0.90;;;0.00;99.90;;;;;;4977264;28;20249;-76
2023/01/16 20:50:28;;;;;;;2.42;1.90;;;0.00;99.90;;;;;;4975705;28;20690;-75
2023/01/16 20:52:56;;;;;;;3.13;1.80;;;0.00;99.90;;;;;;4975958;28;20294;-75
2023/01/16 20:55:22;;;;;;;1.30;1.20;;;0.00;99.90;;;;;;4975445;28;20686;-75
2023/01/16 20:57:49;;;;;;;1.20;1.20;;;0.00;99.90;;;;;;4975674;28;20234;-75
2023/01/16 21:00:18;;;;;;;0.80;0.80;;;0.00;99.90;;;;;;4975514;28;20210;-75
2023/01/16 21:02:45;;;;;;;2.20;1.80;;;-0.10;99.90;;;;;;4974830;28;20273;-75
2023/01/16 21:05:12;;;;;;;2.17;1.63;;;-0.10;99.90;;;;;;4975408;28;20246;-75
2023/01/16 21:07:39;;;;;;;1.70;1.60;;;0.00;99.90;;;;;;4975027;28;20219;-76
2023/01/16 21:10:06;;;;;;;1.80;1.70;;;0.00;99.90;;;;;;4975008;28;20698;-74
2023/01/16 21:15:18;;;;;;;4.85;2.78;;;0.00;99.90;;;;;;4975159;28;20238;-75
2023/01/16 21:23:13;;;;;;;5.53;3.30;;;0.00;99.90;;;;;;4975104;28;20751;-75
2023/01/16 21:25:40;;;;;;;2.60;2.50;;;0.00;99.90;;;;;;4975210;28;20199;-76
2023/01/16 21:28:06;;;;;;;2.97;2.42;;;0.00;99.90;;;;;;4975588;28;20227;-76
2023/01/16 21:30:34;;;;;;;4.38;2.45;;;0.00;99.90;;;;;;4974991;28;20211;-75
2023/01/16 21:33:01;;;;;;;3.40;2.42;;;-0.10;99.90;;;;;;4974999;28;20214;-75
2023/01/16 21:35:28;;;;;;;2.63;2.28;;;-0.20;99.90;;;;;;4974396;28;20216;-75
2023/01/16 21:37:54;;;;;;;1.70;1.60;;;-0.20;99.90;;;;;;4974699;28;20236;-75
2023/01/16 21:40:21;;;;;;;2.53;1.83;;;-0.30;99.90;;;;;;4974701;28;20244;-75
2023/01/16 21:48:20;;;;;;;2.10;2.00;;;-0.60;99.90;;;;;;4974774;28;20218;-74
2023/01/16 21:50:47;;;;;;;1.90;1.80;;;-0.60;99.90;;;;;;4974541;28;20208;-74
2023/01/16 21:53:16;;;;;;;2.20;2.00;;;-0.70;99.90;;;;;;4974638;28;20208;-73
2023/01/16 21:55:43;;;;;;;3.72;2.05;;;-0.80;99.90;;;;;;4974331;28;20219;-73
2023/01/16 21:58:10;;;;;;;1.58;1.48;;;-0.80;99.90;;;;;;4974503;28;20230;-73
2023/01/16 22:00:38;;;;;;;2.85;1.30;;;-0.80;99.90;;;;;;4974406;28;20675;-73
2023/01/16 22:03:05;;;;;;;1.27;1.27;;;-0.80;99.90;;;;;;4974361;28;20287;-73
2023/01/16 22:05:34;;;;;;;1.25;1.25;;;-0.70;99.90;;;;;;4974540;28;20203;-73
2023/01/16 22:08:01;;;;;;;2.25;1.55;;;-0.60;99.90;;;;;;4976590;28;20785;-73
2023/01/16 22:10:28;;;;;;;0.93;0.93;;;-0.50;99.90;;;;;;4978056;28;20211;-73
2023/01/16 22:18:26;;;;;;;3.40;1.30;;;-0.20;99.90;;;;;;4977937;28;20709;-73
2023/01/16 22:20:57;;;;;;;1.05;1.05;;;-0.20;99.90;;;;;;4978037;28;20285;-73
2023/01/16 22:23:24;;;;;;;1.02;0.93;;;-0.20;99.90;;;;;;4978407;28;20192;-73
2023/01/16 22:25:52;;;;;;;0.85;0.85;;;-0.30;99.90;;;;;;4978103;28;20204;-73
2023/01/16 22:28:20;;;;;;;1.00;1.00;;;-0.30;99.90;;;;;;4978163;28;20223;-74
2023/01/16 22:30:50;;;;;;;1.75;0.90;;;-0.40;99.90;;;;;;4977731;28;20211;-73
2023/01/16 22:33:17;;;;;;;0.90;0.90;;;-0.50;99.90;;;;;;4978220;28;20274;-73
2023/01/16 22:35:45;;;;;;;2.03;0.95;;;-0.60;99.90;;;;;;4978447;28;20267;-73
2023/01/16 22:38:12;;;;;;;0.80;0.80;;;-0.50;99.90;;;;;;4978713;28;20223;-72
2023/01/16 22:40:39;;;;;;;0.90;0.90;;;-0.50;99.90;;;;;;4978248;28;20199;-73
